Avilla, Indiana
Current Conditions -  °F | °C
As of 1:15 PM on Sunday 25 Jan 2015 (Local Time) from KGWB Reporting Station
Light Snow Light Snow  
Wind Chill: -9°   Ceiling: 1200
Heat Index: -2°   Visibility: 1.2mi
Dew Point: -5°   Wind: 17mph
Humidity: 80%   Direction: 70°ENE
Pressure: 29.79"   Gusts: 25mph
Location:  41.37°N, 85.24°W
Report Text: KGWB 251815Z AUTO 07015G22KT 1 1/4SM -SN OVC012 M02/M05 A2979 RMK AO2
Loading
Personal Weather Stations






























Interactive Weather Map New forecast layout! Learn more

10-Day Weather Forecast

Advertisements
Track Severe Weather on mobile